Terminal Aerodrome Forecast
Issued by NWS

Home | Current Version | Previous Version | Text Only | Print | Product List | Glossary On
Versions: 1 2 3 4 5 6 7 8 9 10 11 12 13 14 15 16 17 18
000
FTUS44 KBMX 291400 AAA
TAFTOI
TAF AMD
KTOI 291419Z 2914/3012 33005KT P6SM -RA SCT006 OVC015
      TEMPO 2915/2917 BKN006
     FM291700 34005KT P6SM OVC007
     FM292100 33004KT P6SM OVC015
     FM300200 34003KT P6SM OVC007=

USA.gov is the U.S. government's official web portal to all federal, state and local government web resources and services.